Time;durP1;ratioP1;P1;durP2;ratioP2;P2;SDS_P1;SDS_P2;PMS_P1;PMS_P2;Temp;Humidity;BMP_temperature;BMP_pressure;BME280_temperature;BME280_humidity;BME280_pressure;Samples;Min_cycle;Max_cycle;Signal;HPM_P1;HPM_P2
2021/06/08 00:01:16;;;;;;;6.05;5.45;;;16.10;99.90;;;;;;5013083;28;20046;-71
2021/06/08 00:03:42;;;;;;;7.82;7.03;;;16.00;99.90;;;;;;5012459;28;20041;-71
2021/06/08 00:06:10;;;;;;;6.25;5.60;;;16.00;99.90;;;;;;5012670;28;20050;-70
2021/06/08 00:08:36;;;;;;;7.13;6.43;;;15.80;99.90;;;;;;5012689;28;20097;-71
2021/06/08 00:11:02;;;;;;;6.75;6.13;;;15.60;99.90;;;;;;5012495;28;20042;-71
2021/06/08 00:13:29;;;;;;;7.75;6.63;;;15.60;99.90;;;;;;5012812;28;20042;-72
2021/06/08 00:15:56;;;;;;;7.00;6.32;;;15.70;99.90;;;;;;5011553;28;20501;-71
2021/06/08 00:18:22;;;;;;;8.30;6.13;;;15.70;99.90;;;;;;5016211;28;20053;-72
2021/06/08 00:20:48;;;;;;;9.20;6.13;;;15.70;99.90;;;;;;5016535;28;20045;-72
2021/06/08 00:23:16;;;;;;;8.88;7.07;;;15.70;99.90;;;;;;5017048;28;20068;-71
2021/06/08 00:25:42;;;;;;;6.53;5.93;;;15.80;99.90;;;;;;5016679;28;20057;-71
2021/06/08 00:28:09;;;;;;;7.85;5.68;;;15.80;99.90;;;;;;5016637;28;20057;-72
2021/06/08 00:30:35;;;;;;;7.13;6.43;;;15.80;99.90;;;;;;5016692;28;20046;-71
2021/06/08 00:33:01;;;;;;;6.10;5.50;;;15.80;99.90;;;;;;5017007;28;20050;-73
2021/06/08 00:35:28;;;;;;;6.35;5.75;;;15.80;99.90;;;;;;5016759;28;20053;-71
2021/06/08 00:37:54;;;;;;;6.47;5.85;;;15.70;99.90;;;;;;5016372;28;20053;-72
2021/06/08 00:40:21;;;;;;;6.72;6.13;;;15.70;99.90;;;;;;5016500;28;20108;-73
2021/06/08 00:42:48;;;;;;;6.78;6.18;;;15.60;99.90;;;;;;5016252;28;20092;-72
2021/06/08 00:45:15;;;;;;;8.88;6.57;;;15.60;99.90;;;;;;5015868;28;20073;-73
2021/06/08 00:47:41;;;;;;;6.18;5.57;;;15.60;99.90;;;;;;5015746;28;20446;-72
2021/06/08 00:50:09;;;;;;;7.78;6.80;;;15.50;99.90;;;;;;5016274;28;20061;-71
2021/06/08 00:52:35;;;;;;;8.50;7.03;;;15.50;99.90;;;;;;5016183;28;20050;-71
2021/06/08 00:55:01;;;;;;;7.47;6.80;;;15.40;99.90;;;;;;5016176;28;20057;-72
2021/06/08 00:57:28;;;;;;;13.60;6.95;;;15.40;99.90;;;;;;4996520;28;20050;-71
2021/06/08 00:59:54;;;;;;;8.55;6.35;;;15.20;99.90;;;;;;5008968;28;20046;-73
2021/06/08 01:02:21;;;;;;;7.63;6.53;;;15.30;99.90;;;;;;5015970;28;20049;-73
2021/06/08 01:04:47;;;;;;;8.32;6.60;;;15.20;99.90;;;;;;5016349;28;20050;-74
2021/06/08 01:07:13;;;;;;;7.93;6.65;;;15.20;99.90;;;;;;5015808;28;20056;-73
2021/06/08 01:09:39;;;;;;;7.57;6.97;;;15.10;99.90;;;;;;5015399;28;20054;-72
2021/06/08 01:12:06;;;;;;;6.97;6.32;;;15.10;99.90;;;;;;5015924;28;20046;-72
2021/06/08 01:14:33;;;;;;;6.90;6.30;;;15.10;99.90;;;;;;5016495;28;20046;-73
2021/06/08 01:16:59;;;;;;;8.32;6.13;;;15.00;99.90;;;;;;5015805;28;20069;-73
2021/06/08 01:19:25;;;;;;;6.53;5.93;;;15.00;99.90;;;;;;5016031;28;20069;-73
2021/06/08 01:21:53;;;;;;;7.88;6.60;;;15.00;99.90;;;;;;5016175;28;20057;-72
2021/06/08 01:24:19;;;;;;;6.97;6.28;;;15.00;99.90;;;;;;5016121;28;20045;-72
2021/06/08 01:26:45;;;;;;;7.72;6.95;;;14.90;99.90;;;;;;5015559;28;20145;-72
2021/06/08 01:29:12;;;;;;;6.90;6.30;;;14.90;99.90;;;;;;5014141;28;20057;-72
2021/06/08 01:31:38;;;;;;;7.50;6.57;;;14.90;99.90;;;;;;4995970;28;20057;-72
2021/06/08 01:34:05;;;;;;;7.53;6.40;;;14.90;99.90;;;;;;4996586;28;20046;-72
2021/06/08 01:36:37;;;;;;;8.32;7.20;;;14.80;99.90;;;;;;4995872;28;20478;-72
2021/06/08 01:39:06;;;;;;;7.72;5.82;;;14.80;99.90;;;;;;5000560;28;20053;-71
2021/06/08 01:41:33;;;;;;;7.28;6.60;;;14.80;99.90;;;;;;5015681;28;20046;-72
2021/06/08 01:43:59;;;;;;;7.28;6.57;;;14.70;99.90;;;;;;5015486;28;20054;-72
2021/06/08 01:46:25;;;;;;;7.40;6.70;;;14.70;99.90;;;;;;5015207;28;20050;-72
2021/06/08 01:48:52;;;;;;;7.65;6.95;;;14.70;99.90;;;;;;5015379;28;20460;-72
2021/06/08 01:51:25;;;;;;;6.88;6.28;;;14.60;99.90;;;;;;5014874;28;20053;-71
2021/06/08 01:54:01;;;;;;;7.15;6.30;;;14.60;99.90;;;;;;5015485;28;20046;-71
2021/06/08 01:56:30;;;;;;;7.30;6.47;;;14.50;99.90;;;;;;5014760;28;20421;-72
2021/06/08 01:59:11;;;;;;;8.38;7.65;;;14.50;99.90;;;;;;5015129;28;20065;-72
2021/06/08 02:01:47;;;;;;;9.05;8.20;;;14.50;99.90;;;;;;5015426;28;20413;-73
2021/06/08 02:04:22;;;;;;;7.30;6.55;;;14.40;99.90;;;;;;5015598;28;20397;-72
2021/06/08 02:06:55;;;;;;;8.50;7.10;;;14.30;99.90;;;;;;5014807;28;20049;-73
2021/06/08 02:09:31;;;;;;;7.85;7.05;;;14.40;99.90;;;;;;5015329;28;20046;-72
2021/06/08 02:12:03;;;;;;;7.72;7.03;;;14.40;99.90;;;;;;5015325;28;20049;-72
2021/06/08 02:14:37;;;;;;;7.85;7.05;;;14.30;99.90;;;;;;5014871;28;20042;-73
2021/06/08 02:17:13;;;;;;;8.63;7.45;;;14.20;99.90;;;;;;5014911;28;20049;-73
2021/06/08 02:19:41;;;;;;;7.78;7.05;;;14.10;99.90;;;;;;5014850;28;20045;-73
2021/06/08 02:22:09;;;;;;;7.97;7.18;;;13.80;99.90;;;;;;5015022;28;20092;-72
2021/06/08 02:24:36;;;;;;;10.05;7.15;;;13.80;99.90;;;;;;5015552;28;20045;-71
2021/06/08 02:27:07;;;;;;;9.38;7.47;;;13.70;99.90;;;;;;5015233;28;20050;-73
2021/06/08 02:29:35;;;;;;;9.70;7.50;;;13.80;99.90;;;;;;5014914;28;20045;-72
2021/06/08 02:32:03;;;;;;;8.80;7.90;;;13.90;99.90;;;;;;5014811;28;20057;-72
2021/06/08 02:34:30;;;;;;;8.00;7.28;;;14.00;99.90;;;;;;5014630;28;20046;-73
2021/06/08 02:36:58;;;;;;;9.80;7.28;;;14.00;99.90;;;;;;5014293;28;20053;-72
2021/06/08 02:39:25;;;;;;;9.27;8.20;;;13.80;99.90;;;;;;5014263;28;20461;-72
2021/06/08 02:41:52;;;;;;;8.10;7.40;;;13.70;99.90;;;;;;5014664;28;20133;-72
2021/06/08 02:44:22;;;;;;;7.80;6.72;;;13.60;99.90;;;;;;5013913;28;20042;-73
2021/06/08 02:46:51;;;;;;;7.88;7.07;;;13.50;99.90;;;;;;5014214;28;20049;-73
2021/06/08 02:49:18;;;;;;;8.75;7.47;;;13.40;99.90;;;;;;5013953;28;20053;-73
2021/06/08 02:51:45;;;;;;;9.95;8.63;;;13.40;99.90;;;;;;5013870;28;20049;-73
2021/06/08 02:54:13;;;;;;;8.77;7.40;;;13.50;99.90;;;;;;5014452;28;20088;-72
2021/06/08 02:56:40;;;;;;;7.68;6.85;;;13.50;99.90;;;;;;5013803;28;20046;-73
2021/06/08 02:59:10;;;;;;;9.45;8.30;;;13.50;99.90;;;;;;5013667;28;20057;-73
2021/06/08 03:01:43;;;;;;;8.23;7.45;;;13.60;99.90;;;;;;5014207;28;20052;-72
2021/06/08 03:04:12;;;;;;;9.63;8.07;;;13.60;99.90;;;;;;5014188;28;20147;-73
2021/06/08 03:06:42;;;;;;;10.77;8.13;;;13.60;99.90;;;;;;5013595;28;20418;-73
2021/06/08 03:09:12;;;;;;;9.35;8.05;;;13.50;99.90;;;;;;5013340;28;20061;-72
2021/06/08 03:11:41;;;;;;;9.63;7.78;;;13.50;99.90;;;;;;5013973;28;20042;-72
2021/06/08 03:14:11;;;;;;;8.50;7.70;;;13.60;99.90;;;;;;5014108;28;20050;-72
2021/06/08 03:16:43;;;;;;;8.40;7.60;;;13.70;99.90;;;;;;5013491;28;20099;-73
2021/06/08 03:19:13;;;;;;;9.60;8.20;;;13.90;99.90;;;;;;5013665;28;20494;-73
2021/06/08 03:21:43;;;;;;;9.65;7.90;;;14.00;99.90;;;;;;5013532;28;20565;-72
2021/06/08 03:24:13;;;;;;;9.32;7.93;;;14.00;99.90;;;;;;5013962;28;20556;-72
2021/06/08 03:26:43;;;;;;;42.58;26.27;;;14.00;99.90;;;;;;5013640;28;20432;-73
2021/06/08 03:29:10;;;;;;;27.77;18.23;;;14.00;99.90;;;;;;5013121;28;20046;-71
2021/06/08 03:31:42;;;;;;;13.63;11.52;;;14.00;99.90;;;;;;5013122;28;20120;-69
2021/06/08 03:34:14;;;;;;;31.75;19.83;;;14.00;99.90;;;;;;5011697;28;20046;-71
2021/06/08 03:36:43;;;;;;;18.27;13.85;;;14.00;99.90;;;;;;5012551;28;20062;-70
2021/06/08 03:39:09;;;;;;;8.32;7.18;;;14.10;99.90;;;;;;5000720;28;20042;-70
2021/06/08 03:41:35;;;;;;;10.57;8.13;;;14.00;99.90;;;;;;5013590;28;20094;-72
2021/06/08 03:44:02;;;;;;;11.15;7.75;;;13.90;99.90;;;;;;5012395;28;20109;-71
2021/06/08 03:46:29;;;;;;;8.80;7.80;;;13.80;99.90;;;;;;5012621;28;20046;-69
2021/06/08 03:48:58;;;;;;;13.43;8.80;;;13.80;99.90;;;;;;5012661;28;20049;-68
2021/06/08 03:51:28;;;;;;;13.20;8.80;;;13.80;99.90;;;;;;5014003;28;20050;-69
2021/06/08 03:53:54;;;;;;;9.27;8.23;;;13.80;99.90;;;;;;5016876;28;20141;-69
2021/06/08 03:56:21;;;;;;;11.55;9.93;;;13.80;99.90;;;;;;5016147;28;20053;-68
2021/06/08 03:58:47;;;;;;;18.23;10.20;;;14.00;99.90;;;;;;5017065;28;20053;-68
2021/06/08 04:01:14;;;;;;;16.13;12.00;;;14.10;99.90;;;;;;5016447;28;20056;-70
2021/06/08 04:03:42;;;;;;;12.18;10.00;;;14.40;99.90;;;;;;5015976;28;20046;-71
2021/06/08 04:06:10;;;;;;;15.07;10.93;;;14.60;99.90;;;;;;5016232;28;20041;-69
2021/06/08 04:08:36;;;;;;;13.77;10.60;;;14.80;99.90;;;;;;5016224;28;20050;-70
2021/06/08 04:11:02;;;;;;;28.20;16.70;;;14.80;99.90;;;;;;5016348;28;20046;-69
2021/06/08 04:13:28;;;;;;;18.25;13.57;;;14.80;99.90;;;;;;5016368;28;20057;-69
2021/06/08 04:15:55;;;;;;;10.90;9.30;;;15.00;99.90;;;;;;5016319;28;20050;-69
2021/06/08 04:18:22;;;;;;;17.25;12.90;;;15.00;99.90;;;;;;5015693;28;20073;-66
2021/06/08 04:20:53;;;;;;;21.77;13.93;;;15.10;99.90;;;;;;5015076;28;20572;-67
2021/06/08 04:23:25;;;;;;;11.23;9.45;;;15.20;99.90;;;;;;5015624;28;20100;-71
2021/06/08 04:25:51;;;;;;;18.88;14.50;;;15.40;99.90;;;;;;5015600;28;20100;-71
2021/06/08 04:28:19;;;;;;;11.32;10.15;;;15.40;99.90;;;;;;5015422;28;20046;-69
2021/06/08 04:30:46;;;;;;;10.30;8.82;;;15.50;99.90;;;;;;5015494;28;20096;-72
2021/06/08 04:33:12;;;;;;;15.38;11.80;;;15.60;99.90;;;;;;5016031;28;20054;-68
2021/06/08 04:35:39;;;;;;;11.20;9.98;;;15.60;99.90;;;;;;5013949;28;20046;-69
2021/06/08 04:38:06;;;;;;;17.10;12.70;;;15.80;99.90;;;;;;4995782;28;20050;-68
2021/06/08 04:40:37;;;;;;;33.60;21.40;;;15.90;99.90;;;;;;5003760;28;20054;-70
2021/06/08 04:43:03;;;;;;;12.13;9.50;;;16.00;99.90;;;;;;5007063;28;20050;-71
2021/06/08 04:45:29;;;;;;;22.75;16.42;;;16.20;99.90;;;;;;5015434;28;20093;-69
2021/06/08 04:47:55;;;;;;;13.88;10.98;;;16.30;99.90;;;;;;5016691;28;20057;-71
2021/06/08 04:50:21;;;;;;;20.48;15.02;;;16.40;99.90;;;;;;5016042;28;20414;-71
2021/06/08 04:52:55;;;;;;;11.93;9.55;;;16.50;99.90;;;;;;5015862;28;20487;-70
2021/06/08 04:55:23;;;;;;;10.82;9.48;;;16.60;99.90;;;;;;4984813;28;20046;-69
2021/06/08 04:57:50;;;;;;;52.60;31.73;;;16.70;99.90;;;;;;4995584;28;20042;-70
2021/06/08 05:00:19;;;;;;;25.95;16.70;;;16.80;99.90;;;;;;4995882;28;20046;-70
2021/06/08 05:02:48;;;;;;;18.25;13.35;;;17.00;99.90;;;;;;4996584;28;20050;-69
2021/06/08 05:05:32;;;;;;;18.42;14.18;;;17.20;99.90;;;;;;4996524;28;20042;-72
2021/06/08 05:08:07;;;;;;;27.30;18.52;;;17.30;99.90;;;;;;5000838;28;20145;-75
2021/06/08 05:10:36;;;;;;;23.98;15.65;;;17.50;99.90;;;;;;4996847;28;20113;-74
2021/06/08 05:13:05;;;;;;;13.90;11.68;;;17.60;99.90;;;;;;4997275;28;20051;-71
2021/06/08 05:15:33;;;;;;;23.48;16.63;;;17.60;99.90;;;;;;4996045;28;20379;-73
2021/06/08 05:18:00;;;;;;;15.63;11.45;;;17.80;99.90;;;;;;4996036;28;20482;-71
2021/06/08 05:20:27;;;;;;;19.63;13.95;;;17.90;99.90;;;;;;4996662;28;20050;-74
2021/06/08 05:22:55;;;;;;;17.17;13.23;;;18.10;99.90;;;;;;4997067;28;20042;-73
2021/06/08 05:25:22;;;;;;;14.13;11.27;;;18.20;99.90;;;;;;4997753;28;20050;-73
2021/06/08 05:27:49;;;;;;;16.05;14.18;;;18.30;99.90;;;;;;4997435;28;20517;-73
2021/06/08 05:30:26;;;;;;;16.38;11.82;;;18.40;99.90;;;;;;4996968;28;20430;-72
2021/06/08 05:32:52;;;;;;;19.88;14.98;;;18.50;99.90;;;;;;4997244;28;20054;-71
2021/06/08 05:35:26;;;;;;;12.13;10.93;;;18.70;99.90;;;;;;4997414;28;20478;-70
2021/06/08 05:37:52;;;;;;;11.02;8.48;;;18.80;99.90;;;;;;4997050;28;20112;-71
2021/06/08 05:40:22;;;;;;;11.55;9.95;;;18.90;99.90;;;;;;4997069;28;20051;-73
2021/06/08 05:42:48;;;;;;;9.85;8.85;;;19.00;99.90;;;;;;4995592;28;20495;-72
2021/06/08 05:45:16;;;;;;;12.20;10.88;;;19.10;99.90;;;;;;4995275;28;20426;-70
2021/06/08 05:47:42;;;;;;;18.58;12.80;;;19.10;99.90;;;;;;4994608;28;20050;-74
2021/06/08 05:50:09;;;;;;;13.65;11.75;;;19.30;99.90;;;;;;4995078;28;20046;-71
2021/06/08 05:52:36;;;;;;;10.60;9.07;;;19.40;99.90;;;;;;4994711;28;20046;-69
2021/06/08 05:55:07;;;;;;;9.55;8.40;;;19.70;99.90;;;;;;4989054;28;20054;-72
2021/06/08 05:57:33;;;;;;;8.95;7.95;;;19.90;99.90;;;;;;4993849;28;20490;-70
2021/06/08 06:00:04;;;;;;;14.25;12.25;;;20.10;99.90;;;;;;4994904;28;20093;-74
2021/06/08 06:02:34;;;;;;;10.50;8.18;;;20.40;99.90;;;;;;4995737;28;20494;-72
2021/06/08 06:05:00;;;;;;;11.23;10.10;;;20.70;99.90;;;;;;4990350;28;20046;-70
2021/06/08 06:07:27;;;;;;;10.48;7.30;;;21.10;99.90;;;;;;4993985;28;20105;-71
2021/06/08 06:09:54;;;;;;;8.30;7.45;;;21.40;99.90;;;;;;4994169;28;20094;-72
2021/06/08 06:12:20;;;;;;;8.98;8.13;;;21.60;99.90;;;;;;4996525;28;20057;-73
2021/06/08 06:14:49;;;;;;;10.70;7.40;;;21.90;99.90;;;;;;4995130;28;20042;-73
2021/06/08 06:17:15;;;;;;;8.80;7.05;;;22.10;99.90;;;;;;4994772;28;20054;-70
2021/06/08 06:19:44;;;;;;;9.68;8.68;;;22.30;99.90;;;;;;4994616;28;20483;-70
2021/06/08 06:22:10;;;;;;;9.77;8.77;;;22.60;99.90;;;;;;4994960;28;20043;-70
2021/06/08 06:24:37;;;;;;;8.00;7.10;;;23.20;99.90;;;;;;4995614;28;20121;-70
2021/06/08 06:27:05;;;;;;;10.40;8.70;;;23.40;99.90;;;;;;4994102;28;20085;-76
2021/06/08 06:29:31;;;;;;;7.75;6.97;;;23.60;99.90;;;;;;4989489;28;20054;-72
2021/06/08 06:31:58;;;;;;;11.10;8.82;;;23.80;99.90;;;;;;4993758;28;20074;-72
2021/06/08 06:34:25;;;;;;;7.93;7.22;;;24.20;98.30;;;;;;4993708;28;20046;-73
2021/06/08 06:36:56;;;;;;;8.55;7.75;;;24.30;96.70;;;;;;4992898;28;20046;-70
2021/06/08 06:39:24;;;;;;;8.15;7.30;;;24.50;95.30;;;;;;4993344;28;20474;-72
2021/06/08 06:41:53;;;;;;;7.18;6.47;;;24.70;94.60;;;;;;4993782;28;20046;-72
2021/06/08 06:44:22;;;;;;;7.32;6.68;;;24.90;93.90;;;;;;4994075;28;20042;-71
2021/06/08 06:46:50;;;;;;;9.25;7.07;;;24.90;92.60;;;;;;4994143;28;20050;-75
2021/06/08 06:49:16;;;;;;;7.85;7.07;;;24.90;92.50;;;;;;4995064;28;20050;-71
2021/06/08 06:51:47;;;;;;;6.28;5.70;;;25.20;91.70;;;;;;4994063;28;20522;-71
2021/06/08 06:54:15;;;;;;;8.25;6.22;;;25.40;90.80;;;;;;4993175;28;20042;-71
2021/06/08 06:56:44;;;;;;;7.68;6.95;;;25.60;90.50;;;;;;4994019;28;20376;-72
2021/06/08 06:59:10;;;;;;;7.05;6.43;;;25.90;89.00;;;;;;4993860;28;20097;-71
2021/06/08 07:01:37;;;;;;;8.25;6.43;;;26.30;87.70;;;;;;4992734;28;20046;-71
2021/06/08 07:04:04;;;;;;;6.82;6.30;;;26.40;85.30;;;;;;4993441;28;20169;-71
2021/06/08 07:06:32;;;;;;;8.20;7.40;;;26.80;82.00;;;;;;4993303;28;20422;-70
2021/06/08 07:09:00;;;;;;;7.03;6.43;;;27.20;81.90;;;;;;4993811;28;20487;-71
2021/06/08 07:11:29;;;;;;;8.82;8.02;;;27.40;80.50;;;;;;4993385;28;20128;-71
2021/06/08 07:13:57;;;;;;;8.45;7.75;;;27.70;78.10;;;;;;4993157;28;20422;-71
2021/06/08 07:16:25;;;;;;;12.93;10.63;;;28.00;78.60;;;;;;4992651;28;20132;-72
2021/06/08 07:18:51;;;;;;;6.90;6.40;;;28.30;76.30;;;;;;4993413;28;20042;-70
2021/06/08 07:21:20;;;;;;;8.82;7.80;;;28.10;71.10;;;;;;4994502;28;20054;-71
2021/06/08 07:23:48;;;;;;;8.15;6.40;;;28.10;72.00;;;;;;4994848;28;20081;-71
2021/06/08 07:26:17;;;;;;;6.68;6.15;;;28.50;71.50;;;;;;4993638;28;20046;-72
2021/06/08 07:28:45;;;;;;;5.63;5.20;;;28.60;70.70;;;;;;4994175;28;20421;-72
2021/06/08 07:31:29;;;;;;;7.18;6.57;;;28.90;71.00;;;;;;4993967;28;20046;-70
2021/06/08 07:34:03;;;;;;;8.13;6.57;;;28.90;71.40;;;;;;4994846;28;20078;-70
2021/06/08 07:36:38;;;;;;;5.43;5.03;;;29.10;70.70;;;;;;4995153;28;20050;-70
2021/06/08 07:39:10;;;;;;;8.52;6.05;;;29.60;68.60;;;;;;4975517;28;20058;-70
2021/06/08 07:41:43;;;;;;;7.15;5.78;;;29.60;67.20;;;;;;4978686;28;20420;-72
2021/06/08 07:44:16;;;;;;;6.78;6.20;;;29.70;64.90;;;;;;4991672;28;20516;-72
2021/06/08 07:46:44;;;;;;;7.72;6.97;;;29.50;64.90;;;;;;4992623;28;20192;-71
2021/06/08 07:49:12;;;;;;;6.32;5.47;;;29.30;64.70;;;;;;4991828;28;20050;-70
2021/06/08 07:51:41;;;;;;;9.93;8.85;;;30.00;64.20;;;;;;4992552;28;20057;-71
2021/06/08 07:54:08;;;;;;;8.70;6.80;;;30.20;63.60;;;;;;4992472;28;20475;-73
2021/06/08 07:56:36;;;;;;;7.93;7.13;;;30.60;63.50;;;;;;4992410;28;20060;-71
2021/06/08 07:59:03;;;;;;;9.07;8.10;;;30.90;61.40;;;;;;4994129;28;20058;-72
2021/06/08 08:01:31;;;;;;;8.50;7.68;;;31.10;60.50;;;;;;4993190;28;20082;-75
2021/06/08 08:03:58;;;;;;;9.88;8.98;;;31.20;59.70;;;;;;4992210;28;20046;-71
2021/06/08 08:06:25;;;;;;;8.48;7.78;;;31.40;58.40;;;;;;4992685;28;20043;-72
2021/06/08 08:08:53;;;;;;;6.65;6.15;;;31.60;57.80;;;;;;4992936;28;20414;-69
2021/06/08 08:11:19;;;;;;;9.00;8.07;;;31.60;57.00;;;;;;4992514;28;20046;-74
2021/06/08 08:13:47;;;;;;;9.60;8.63;;;32.00;56.90;;;;;;4992334;28;20047;-73
2021/06/08 08:16:15;;;;;;;8.60;6.63;;;32.20;55.90;;;;;;4987437;28;20069;-74
2021/06/08 08:18:43;;;;;;;5.47;5.07;;;32.10;55.40;;;;;;4993097;28;20042;-70
2021/06/08 08:21:13;;;;;;;6.55;6.05;;;32.30;54.20;;;;;;4992603;28;20042;-73
2021/06/08 08:23:40;;;;;;;5.82;5.13;;;32.30;53.40;;;;;;4992758;28;20046;-72
2021/06/08 08:26:08;;;;;;;7.35;6.40;;;32.50;53.20;;;;;;4992545;28;20050;-70
2021/06/08 08:28:36;;;;;;;8.60;7.80;;;32.60;53.00;;;;;;4993089;28;20050;-71
2021/06/08 08:31:05;;;;;;;10.77;9.68;;;33.20;52.80;;;;;;4992316;28;20557;-72
2021/06/08 08:33:33;;;;;;;7.22;6.22;;;33.70;51.50;;;;;;4992149;28;20046;-70
2021/06/08 08:36:01;;;;;;;5.95;5.45;;;33.90;50.60;;;;;;4992299;28;20042;-72
2021/06/08 08:38:29;;;;;;;4.90;4.50;;;34.10;50.50;;;;;;4994267;28;20053;-73
2021/06/08 08:40:56;;;;;;;9.60;7.78;;;33.60;49.60;;;;;;4996687;28;20049;-72
2021/06/08 08:43:23;;;;;;;6.15;5.65;;;33.40;49.80;;;;;;5000534;28;20069;-73
2021/06/08 08:46:03;;;;;;;9.23;6.50;;;33.20;49.60;;;;;;4996534;28;20101;-73
2021/06/08 08:48:53;;;;;;;6.10;5.57;;;33.30;49.10;;;;;;4995923;28;20499;-73
2021/06/08 08:51:23;;;;;;;7.03;6.43;;;33.60;48.30;;;;;;4996476;28;20054;-72
2021/06/08 08:53:53;;;;;;;4.75;4.35;;;33.50;48.20;;;;;;4997431;28;20046;-73
2021/06/08 08:56:22;;;;;;;7.03;6.18;;;33.60;49.70;;;;;;4995961;28;20458;-73
2021/06/08 08:58:49;;;;;;;5.55;5.05;;;33.70;49.80;;;;;;4996800;28;20042;-72
2021/06/08 09:01:15;;;;;;;5.85;5.38;;;34.20;48.30;;;;;;4996564;28;20100;-72
2021/06/08 09:03:43;;;;;;;5.32;4.82;;;34.50;47.50;;;;;;4996154;28;20049;-73
2021/06/08 09:06:12;;;;;;;5.68;5.18;;;34.20;46.20;;;;;;4996793;28;20050;-73
2021/06/08 09:08:40;;;;;;;5.95;5.40;;;34.20;46.50;;;;;;4996221;28;20053;-74
2021/06/08 09:11:08;;;;;;;10.40;9.25;;;34.20;46.50;;;;;;4995921;28;20046;-74
2021/06/08 09:13:34;;;;;;;13.57;10.25;;;34.30;46.70;;;;;;4996375;28;20050;-73
2021/06/08 09:16:00;;;;;;;5.88;5.28;;;34.80;46.20;;;;;;4995608;28;20080;-73
2021/06/08 09:18:26;;;;;;;5.97;5.13;;;35.10;44.60;;;;;;4996534;28;20049;-74
2021/06/08 09:20:53;;;;;;;5.95;5.55;;;34.80;44.70;;;;;;4996557;28;20047;-74
2021/06/08 09:23:23;;;;;;;5.55;5.15;;;34.80;46.40;;;;;;4996512;28;20081;-74
2021/06/08 09:25:52;;;;;;;6.53;6.03;;;34.80;45.40;;;;;;4995889;28;20509;-73
2021/06/08 09:28:21;;;;;;;5.88;5.40;;;35.10;44.90;;;;;;4995796;28;20046;-72
2021/06/08 09:30:48;;;;;;;5.20;4.80;;;35.10;44.20;;;;;;4995376;28;20050;-73
2021/06/08 09:33:20;;;;;;;4.95;4.50;;;35.00;44.40;;;;;;4996106;28;20050;-74
2021/06/08 09:35:51;;;;;;;5.70;4.72;;;34.80;44.40;;;;;;4995518;28;20509;-72
2021/06/08 09:38:17;;;;;;;7.25;6.65;;;34.50;46.40;;;;;;4995007;28;20482;-70
2021/06/08 09:40:44;;;;;;;6.18;5.57;;;35.10;44.70;;;;;;4994837;28;20057;-69
2021/06/08 09:43:13;;;;;;;11.27;10.18;;;35.30;44.60;;;;;;4994806;28;20047;-70
2021/06/08 09:45:41;;;;;;;6.17;5.57;;;35.70;44.60;;;;;;4994640;28;20053;-70
2021/06/08 09:48:08;;;;;;;6.75;6.25;;;35.80;44.10;;;;;;4994587;28;20050;-70
2021/06/08 09:50:36;;;;;;;5.13;4.72;;;36.00;43.20;;;;;;4993836;28;20050;-69
2021/06/08 09:53:23;;;;;;;5.47;4.97;;;35.60;43.30;;;;;;4994399;28;20042;-70
2021/06/08 09:55:54;;;;;;;6.50;5.93;;;35.60;42.20;;;;;;4993803;28;20046;-70
2021/06/08 09:58:22;;;;;;;6.22;5.72;;;35.70;43.50;;;;;;4994677;28;20046;-71
2021/06/08 10:01:13;;;;;;;5.57;5.18;;;36.40;42.20;;;;;;4994605;28;20046;-71
2021/06/08 10:03:41;;;;;;;8.48;5.47;;;37.10;40.40;;;;;;4994715;28;20047;-71
2021/06/08 10:06:09;;;;;;;4.30;3.95;;;36.30;40.40;;;;;;4993743;28;20054;-71
2021/06/08 10:08:38;;;;;;;5.45;4.90;;;35.40;41.10;;;;;;4994325;28;20046;-71
2021/06/08 10:11:14;;;;;;;7.25;6.65;;;35.10;41.50;;;;;;4993799;28;20498;-70
2021/06/08 10:13:42;;;;;;;6.07;5.63;;;35.50;41.90;;;;;;4994180;28;20050;-71
2021/06/08 10:16:09;;;;;;;5.75;5.25;;;36.20;41.10;;;;;;4993977;28;20052;-71
2021/06/08 10:18:43;;;;;;;5.25;4.85;;;36.30;42.00;;;;;;4993516;28;20054;-72
2021/06/08 10:21:10;;;;;;;4.90;4.50;;;36.30;41.10;;;;;;4994020;28;20426;-71
2021/06/08 10:23:36;;;;;;;12.60;11.32;;;35.80;40.90;;;;;;4994016;28;20422;-70
2021/06/08 10:26:04;;;;;;;4.72;4.43;;;35.80;41.20;;;;;;4993642;28;20462;-72
2021/06/08 10:28:31;;;;;;;5.80;5.07;;;35.90;40.10;;;;;;4993801;28;20054;-71
2021/06/08 10:30:59;;;;;;;6.55;6.05;;;36.50;40.30;;;;;;4993605;28;20047;-72
2021/06/08 10:33:25;;;;;;;5.97;5.55;;;37.40;40.50;;;;;;4995649;28;20070;-71
2021/06/08 10:35:53;;;;;;;5.30;4.90;;;37.60;39.40;;;;;;4996630;28;20042;-70
2021/06/08 10:38:20;;;;;;;5.07;4.68;;;37.90;39.40;;;;;;4993917;28;20703;-71
2021/06/08 10:40:50;;;;;;;4.60;4.30;;;38.30;38.60;;;;;;4993983;28;20495;-70
2021/06/08 10:43:18;;;;;;;5.45;5.05;;;37.50;38.30;;;;;;4995154;28;20050;-71
2021/06/08 10:45:46;;;;;;;4.90;4.60;;;37.90;39.50;;;;;;4997031;28;20047;-71
2021/06/08 10:48:17;;;;;;;4.70;4.40;;;36.70;39.10;;;;;;4994672;28;20050;-70
2021/06/08 10:50:46;;;;;;;3.90;3.70;;;36.00;40.50;;;;;;4994093;28;20065;-71
2021/06/08 10:53:27;;;;;;;4.43;4.13;;;36.50;40.90;;;;;;4994362;28;20053;-72
2021/06/08 10:55:54;;;;;;;4.43;4.13;;;37.00;39.70;;;;;;4993960;28;20058;-70
2021/06/08 10:58:45;;;;;;;5.65;4.13;;;37.50;38.90;;;;;;4993710;28;20047;-71
2021/06/08 11:01:43;;;;;;;5.35;4.85;;;37.50;38.60;;;;;;4993454;28;20128;-71
2021/06/08 11:04:12;;;;;;;4.88;4.55;;;36.70;40.40;;;;;;4987719;28;20077;-72
2021/06/08 11:06:51;;;;;;;8.02;5.18;;;35.60;40.90;;;;;;4992735;28;20042;-74
2021/06/08 11:09:34;;;;;;;5.95;5.50;;;34.00;42.30;;;;;;4993493;28;20057;-71
2021/06/08 11:12:20;;;;;;;5.25;4.85;;;33.50;45.80;;;;;;4991638;28;20113;-69
2021/06/08 11:14:58;;;;;;;6.00;5.40;;;34.20;44.00;;;;;;4977755;28;20058;-71
2021/06/08 11:17:34;;;;;;;5.00;4.53;;;34.20;43.70;;;;;;4985194;28;20097;-71
2021/06/08 11:20:16;;;;;;;7.88;7.18;;;35.30;42.90;;;;;;4993628;28;20048;-72
2021/06/08 11:22:57;;;;;;;6.53;6.03;;;35.70;42.80;;;;;;4993456;28;20047;-71
2021/06/08 11:25:43;;;;;;;5.85;5.35;;;36.80;41.10;;;;;;5000132;28;20054;-72
2021/06/08 11:28:12;;;;;;;5.22;4.80;;;37.70;40.70;;;;;;4993930;28;20053;-73
2021/06/08 11:30:41;;;;;;;4.82;4.53;;;36.50;39.90;;;;;;4993877;28;20046;-72
2021/06/08 11:33:09;;;;;;;5.60;5.20;;;35.90;41.50;;;;;;4993130;28;20490;-73
2021/06/08 11:35:40;;;;;;;4.95;4.50;;;36.00;41.10;;;;;;4992952;28;20046;-70
2021/06/08 11:38:11;;;;;;;5.68;4.68;;;35.20;42.50;;;;;;4993190;28;20058;-71
2021/06/08 11:40:56;;;;;;;6.05;5.65;;;34.70;44.00;;;;;;4993075;28;20046;-72
2021/06/08 11:43:51;;;;;;;6.80;5.50;;;33.80;44.30;;;;;;4993450;28;20122;-73
2021/06/08 11:46:27;;;;;;;5.47;4.57;;;32.80;46.10;;;;;;4993016;28;20042;-70
2021/06/08 11:49:11;;;;;;;5.97;5.43;;;32.30;47.30;;;;;;4993036;28;20138;-70
2021/06/08 11:52:00;;;;;;;5.20;4.90;;;31.40;48.60;;;;;;4992749;28;20096;-73
2021/06/08 11:54:38;;;;;;;5.15;4.65;;;30.90;49.70;;;;;;4988071;28;20399;-75
2021/06/08 11:57:06;;;;;;;5.72;5.05;;;30.50;50.10;;;;;;4995246;28;20050;-73
2021/06/08 11:59:55;;;;;;;10.95;8.90;;;30.60;50.60;;;;;;4992803;28;20046;-71
2021/06/08 12:02:31;;;;;;;5.65;5.25;;;31.40;49.80;;;;;;4992593;28;20050;-69
2021/06/08 12:05:23;;;;;;;4.97;4.47;;;31.70;48.10;;;;;;4992783;28;20043;-70
2021/06/08 12:07:56;;;;;;;5.53;5.13;;;32.20;48.10;;;;;;4992797;28;20418;-70
2021/06/08 12:10:35;;;;;;;5.07;4.68;;;32.80;47.80;;;;;;4992546;28;20055;-69
2021/06/08 12:13:01;;;;;;;5.07;4.78;;;32.50;46.90;;;;;;4994150;28;20046;-70
2021/06/08 12:15:29;;;;;;;5.43;4.93;;;32.30;46.60;;;;;;4983112;28;20050;-68
2021/06/08 12:18:02;;;;;;;5.38;4.80;;;32.10;48.00;;;;;;4996553;28;20407;-71
2021/06/08 12:20:28;;;;;;;4.45;4.05;;;32.30;47.50;;;;;;4977800;28;20043;-70
2021/06/08 12:22:56;;;;;;;4.22;4.00;;;32.40;47.20;;;;;;4978080;28;20074;-70
2021/06/08 12:25:23;;;;;;;5.75;5.28;;;32.90;47.90;;;;;;4995977;28;20395;-73
2021/06/08 12:27:49;;;;;;;5.43;5.03;;;33.40;45.90;;;;;;4998972;28;20050;-73
2021/06/08 12:30:20;;;;;;;5.82;5.32;;;34.10;45.60;;;;;;4998395;28;20054;-73
2021/06/08 12:32:52;;;;;;;4.40;4.00;;;33.90;44.70;;;;;;4997491;28;20142;-73
2021/06/08 12:35:37;;;;;;;6.95;4.40;;;33.30;44.90;;;;;;4997340;28;20046;-72
2021/06/08 12:38:15;;;;;;;5.28;4.88;;;32.60;45.10;;;;;;4996889;28;20058;-71
2021/06/08 12:40:41;;;;;;;5.65;5.22;;;32.10;45.60;;;;;;4997842;28;20050;-72
2021/06/08 12:43:08;;;;;;;5.43;4.93;;;31.90;45.50;;;;;;4997495;28;20050;-72
2021/06/08 12:45:34;;;;;;;4.65;4.35;;;32.20;45.80;;;;;;4997566;28;20053;-71
2021/06/08 12:48:00;;;;;;;5.53;4.82;;;32.70;45.70;;;;;;4997235;28;20431;-71
2021/06/08 12:50:31;;;;;;;4.88;4.35;;;33.00;45.90;;;;;;4996796;28;20066;-72
2021/06/08 12:53:01;;;;;;;4.82;4.40;;;33.10;46.00;;;;;;4997149;28;20081;-72
2021/06/08 12:55:33;;;;;;;4.32;4.03;;;33.30;45.80;;;;;;4996405;28;20521;-72